createdAt,value
2024-02-04T00:03:33.832Z,58.66
2024-02-04T00:06:01.993Z,58.51
2024-02-04T00:08:33.761Z,58.58
2024-02-04T00:11:01.748Z,58.67
2024-02-04T00:13:29.473Z,58.57
2024-02-04T00:16:00.110Z,58.38
2024-02-04T00:18:28.340Z,58.40
2024-02-04T00:20:58.795Z,58.46
2024-02-04T00:23:28.417Z,58.61
2024-02-04T00:25:59.173Z,58.43
2024-02-04T00:28:28.694Z,58.22
2024-02-04T00:31:02.464Z,58.40
2024-02-04T00:33:32.232Z,58.27
2024-02-04T00:36:03.142Z,58.55
2024-02-04T00:38:31.020Z,58.26
2024-02-04T00:41:04.673Z,58.14
2024-02-04T00:43:32.144Z,58.38
2024-02-04T00:46:04.703Z,58.35
2024-02-04T00:48:32.707Z,58.46
2024-02-04T00:51:00.495Z,58.41
2024-02-04T00:53:35.418Z,58.47
2024-02-04T00:56:05.301Z,58.46
2024-02-04T00:58:40.673Z,58.50
2024-02-04T01:05:46.616Z,58.63
2024-02-04T01:08:14.606Z,58.51
2024-02-04T01:10:45.094Z,58.49
2024-02-04T01:13:12.778Z,59.28
2024-02-04T01:15:40.649Z,59.62
2024-02-04T01:18:08.578Z,59.76
2024-02-04T01:20:36.686Z,59.88
2024-02-04T01:23:04.376Z,59.83
2024-02-04T01:25:32.736Z,59.90
2024-02-04T01:28:02.766Z,59.69
2024-02-04T01:30:33.337Z,59.65
2024-02-04T01:33:05.417Z,59.73
2024-02-04T01:35:34.239Z,59.61
2024-02-04T01:38:04.397Z,59.40
2024-02-04T01:40:32.009Z,59.69
2024-02-04T01:42:59.742Z,59.86
2024-02-04T01:45:28.265Z,59.73
2024-02-04T01:47:56.380Z,59.94
2024-02-04T01:50:24.745Z,60.02
2024-02-04T01:52:53.647Z,59.97
2024-02-04T01:55:24.058Z,59.99
2024-02-04T01:57:51.683Z,59.63
2024-02-04T02:00:19.896Z,60.05
2024-02-04T02:02:50.026Z,59.92
2024-02-04T02:05:21.540Z,60.05
2024-02-04T02:07:52.678Z,60.28
2024-02-04T02:10:22.224Z,59.30
2024-02-04T02:13:04.931Z,59.54
2024-02-04T02:15:37.509Z,59.68
2024-02-04T02:18:15.727Z,59.60
2024-02-04T02:20:54.553Z,59.47
2024-02-04T02:23:37.931Z,59.33
2024-02-04T02:26:09.992Z,59.39
2024-02-04T02:28:42.474Z,59.34
2024-02-04T02:31:10.112Z,59.38
2024-02-04T02:33:37.521Z,59.37
2024-02-04T02:36:12.156Z,59.19
2024-02-04T02:38:54.238Z,58.79
2024-02-04T02:41:22.333Z,58.63
2024-02-04T02:43:53.274Z,58.73
2024-02-04T02:46:21.140Z,58.53
2024-02-04T02:48:51.845Z,58.65
2024-02-04T02:51:19.609Z,58.81
2024-02-04T02:53:47.265Z,58.48
2024-02-04T02:56:17.322Z,58.31
2024-02-04T02:58:45.023Z,58.60
2024-02-04T03:01:12.836Z,58.53
2024-02-04T03:03:40.973Z,58.58
2024-02-04T03:06:16.513Z,58.51
2024-02-04T03:08:43.755Z,58.58
2024-02-04T03:11:11.563Z,58.70
2024-02-04T03:13:42.032Z,58.56
2024-02-04T03:16:13.600Z,58.93
2024-02-04T03:18:42.914Z,58.55
2024-02-04T03:21:17.402Z,58.48
2024-02-04T03:23:45.911Z,58.55
2024-02-04T03:26:22.756Z,58.72
2024-02-04T03:28:51.657Z,58.83
2024-02-04T03:31:25.166Z,58.71
2024-02-04T03:33:53.483Z,58.69
2024-02-04T03:36:25.387Z,58.68
2024-02-04T03:38:55.497Z,58.75
2024-02-04T03:41:25.982Z,58.80
2024-02-04T03:43:53.833Z,58.67
2024-02-04T03:46:21.503Z,58.80
2024-02-04T03:48:51.816Z,58.77
2024-02-04T03:51:21.853Z,58.61
2024-02-04T03:53:52.675Z,58.59
2024-02-04T03:56:20.378Z,58.84
2024-02-04T03:58:51.605Z,58.76
2024-02-04T04:01:19.451Z,58.54
2024-02-04T04:03:50.154Z,58.62
2024-02-04T04:06:20.303Z,58.51
2024-02-04T04:08:48.109Z,58.49
2024-02-04T04:11:20.213Z,58.71
2024-02-04T04:13:47.934Z,58.60
2024-02-04T04:16:15.304Z,58.44
2024-02-04T04:18:42.755Z,58.38
2024-02-04T04:21:10.555Z,58.41
2024-02-04T04:23:37.869Z,58.51
2024-02-04T04:26:08.658Z,58.36
2024-02-04T04:28:39.358Z,58.38
2024-02-04T04:31:07.096Z,58.27
2024-02-04T04:33:37.829Z,58.38
2024-02-04T04:36:25.275Z,58.18
2024-02-04T04:38:52.952Z,58.39
2024-02-04T04:41:22.365Z,58.44
2024-02-04T04:43:50.789Z,58.24
2024-02-04T04:46:18.217Z,58.39
2024-02-04T04:48:48.163Z,58.24
2024-02-04T04:51:16.447Z,58.30
2024-02-04T04:53:43.881Z,58.21
2024-02-04T04:56:11.630Z,58.21
2024-02-04T04:58:39.032Z,58.19
2024-02-04T05:01:09.647Z,58.30
2024-02-04T05:03:37.505Z,58.09
2024-02-04T05:06:08.158Z,57.98
2024-02-04T05:08:35.596Z,58.29
2024-02-04T05:11:03.696Z,58.21
2024-02-04T05:13:31.643Z,58.08
2024-02-04T05:15:59.482Z,58.24
2024-02-04T05:18:29.855Z,58.04
2024-02-04T05:20:59.211Z,58.18
2024-02-04T05:23:27.250Z,58.13
2024-02-04T05:25:55.082Z,58.00
2024-02-04T05:28:22.418Z,57.96
2024-02-04T05:30:50.348Z,57.97
2024-02-04T05:33:18.289Z,58.19
2024-02-04T05:35:47.851Z,58.01
2024-02-04T05:38:17.876Z,58.03
2024-02-04T05:40:45.437Z,57.91
2024-02-04T05:43:13.598Z,57.97
2024-02-04T05:45:44.095Z,58.05
2024-02-04T05:48:19.720Z,57.89
2024-02-04T05:50:49.734Z,57.91
2024-02-04T05:53:19.998Z,58.08
2024-02-04T05:55:51.443Z,57.84
2024-02-04T05:58:18.962Z,57.90
2024-02-04T06:00:51.812Z,58.03
2024-02-04T06:03:19.481Z,57.86
2024-02-04T06:05:48.610Z,57.94
2024-02-04T06:08:16.169Z,57.89
2024-02-04T06:10:43.625Z,57.81
2024-02-04T06:13:13.324Z,57.80
2024-02-04T06:15:40.575Z,57.87
2024-02-04T06:18:08.263Z,57.72
2024-02-04T06:20:36.617Z,57.76
2024-02-04T06:23:04.323Z,57.72
2024-02-04T06:25:32.289Z,57.54
2024-02-04T06:28:00.110Z,57.41
2024-02-04T06:30:27.883Z,57.49
2024-02-04T06:32:56.158Z,57.37
2024-02-04T06:35:29.139Z,57.43
2024-02-04T06:37:58.300Z,57.27
2024-02-04T06:40:29.770Z,57.28
2024-02-04T06:42:57.274Z,57.38
2024-02-04T06:45:26.955Z,57.47
2024-02-04T06:47:56.607Z,57.27
2024-02-04T06:50:24.021Z,57.49
2024-02-04T06:52:54.828Z,57.50
2024-02-04T06:55:22.545Z,57.53
2024-02-04T06:57:50.203Z,57.24
2024-02-04T07:00:19.022Z,57.38
2024-02-04T07:02:47.429Z,57.35
2024-02-04T07:05:18.664Z,57.32
2024-02-04T07:07:48.896Z,57.21
2024-02-04T07:10:22.090Z,57.03
2024-02-04T07:12:49.763Z,57.00
2024-02-04T07:15:19.546Z,56.86
2024-02-04T07:17:47.841Z,56.63
2024-02-04T07:20:17.750Z,56.17
2024-02-04T07:22:52.431Z,56.06
2024-02-04T07:25:23.596Z,55.66
2024-02-04T07:27:51.349Z,55.58
2024-02-04T07:30:18.814Z,55.55
2024-02-04T07:32:47.086Z,55.01
2024-02-04T07:35:15.383Z,54.84
2024-02-04T07:37:44.190Z,54.66
2024-02-04T07:40:12.134Z,54.79
2024-02-04T07:42:41.768Z,55.99
2024-02-04T07:45:13.055Z,54.67
2024-02-04T07:47:41.078Z,51.67
2024-02-04T07:50:12.081Z,52.66
2024-02-04T07:52:45.505Z,53.57
2024-02-04T07:55:17.205Z,54.10
2024-02-04T07:57:47.690Z,54.14
2024-02-04T08:00:16.576Z,53.99
2024-02-04T08:02:45.956Z,54.26
2024-02-04T08:05:36.671Z,54.10
2024-02-04T08:08:11.452Z,53.99
2024-02-04T08:10:39.350Z,54.21
2024-02-04T08:15:37.201Z,54.08
2024-02-04T08:18:08.304Z,53.89
2024-02-04T08:20:36.256Z,53.87
2024-02-04T08:23:07.916Z,53.91
2024-02-04T08:25:52.360Z,53.85
2024-02-04T08:28:23.459Z,53.46
2024-02-04T08:30:58.349Z,53.64
2024-02-04T08:33:32.093Z,53.72
2024-02-04T08:36:04.299Z,53.39
2024-02-04T08:38:34.732Z,53.42
2024-02-04T08:41:11.268Z,53.14
2024-02-04T08:43:39.366Z,53.09
2024-02-04T08:46:18.176Z,52.81
2024-02-04T08:48:58.628Z,52.49
2024-02-04T08:51:38.458Z,52.26
2024-02-04T08:54:18.646Z,52.37
2024-02-04T09:03:28.237Z,52.88
2024-02-04T09:05:58.414Z,52.84
2024-02-04T09:11:48.177Z,52.35
2024-02-04T09:14:15.593Z,52.58
2024-02-04T09:16:50.596Z,52.33
2024-02-04T09:19:18.371Z,52.41
2024-02-04T09:21:56.926Z,52.38
2024-02-04T09:24:27.854Z,52.04
2024-02-04T09:26:55.528Z,52.04
2024-02-04T09:29:29.342Z,52.05
2024-02-04T09:31:56.993Z,51.80
2024-02-04T09:34:30.399Z,52.29
2024-02-04T09:37:19.663Z,52.02
2024-02-04T09:39:47.004Z,51.55
2024-02-04T09:42:22.807Z,51.47
2024-02-04T09:44:50.771Z,51.42
2024-02-04T09:47:18.647Z,51.66
2024-02-04T09:49:46.422Z,52.08
2024-02-04T09:52:20.142Z,51.89
2024-02-04T09:54:51.630Z,51.88
2024-02-04T09:57:19.095Z,50.79
2024-02-04T09:59:48.506Z,49.52
2024-02-04T10:02:20.107Z,49.72
2024-02-04T10:04:49.293Z,50.77
2024-02-04T10:07:20.420Z,51.00
2024-02-04T10:09:48.169Z,51.01
2024-02-04T10:12:15.675Z,51.16
2024-02-04T10:14:43.149Z,51.30
2024-02-04T10:17:21.694Z,51.55
2024-02-04T10:19:50.178Z,51.78
2024-02-04T10:22:21.158Z,51.67
2024-02-04T10:24:49.666Z,51.84
2024-02-04T10:27:26.568Z,52.06
2024-02-04T10:30:08.658Z,52.15
2024-02-04T10:32:36.316Z,52.19
2024-02-04T10:35:06.983Z,52.20
2024-02-04T10:37:34.347Z,52.33
2024-02-04T10:40:01.902Z,52.40
2024-02-04T10:42:30.507Z,52.43
2024-02-04T10:45:03.960Z,52.50
2024-02-04T10:47:41.804Z,52.50
2024-02-04T10:50:09.948Z,52.54
2024-02-04T10:52:42.885Z,52.56
2024-02-04T10:55:14.048Z,52.80
2024-02-04T10:57:45.610Z,52.77
2024-02-04T11:00:14.393Z,52.44
2024-02-04T11:02:48.187Z,52.54
2024-02-04T11:05:18.932Z,52.53
2024-02-04T11:07:48.899Z,52.43
2024-02-04T11:10:16.350Z,52.50
2024-02-04T11:12:45.852Z,52.62
2024-02-04T11:15:18.952Z,52.70
2024-02-04T11:18:19.706Z,52.90
2024-02-04T11:20:56.084Z,52.97
2024-02-04T11:23:47.977Z,52.99
2024-02-04T11:30:53.235Z,52.79
2024-02-04T11:33:22.393Z,52.79
2024-02-04T11:36:07.186Z,52.99
2024-02-04T11:38:40.641Z,52.65
2024-02-04T11:41:09.383Z,52.97
2024-02-04T11:43:41.768Z,53.01
2024-02-04T11:46:28.090Z,53.20
2024-02-04T11:48:55.915Z,52.91
2024-02-04T11:51:25.666Z,53.03
2024-02-04T11:53:53.450Z,53.12
2024-02-04T11:56:20.958Z,53.06
2024-02-04T11:58:49.243Z,53.32
2024-02-04T12:01:17.326Z,52.94
2024-02-04T12:03:44.725Z,53.20
2024-02-04T12:06:17.863Z,53.26
2024-02-04T12:08:45.405Z,53.52
2024-02-04T12:11:13.170Z,52.93
2024-02-04T12:13:46.842Z,53.98
2024-02-04T12:16:14.598Z,54.43
2024-02-04T12:18:52.143Z,56.63
2024-02-04T12:21:29.612Z,55.60
2024-02-04T12:23:57.647Z,55.59
2024-02-04T12:26:28.285Z,55.41
2024-02-04T12:28:56.750Z,55.50
2024-02-04T12:31:30.644Z,55.20
2024-02-04T12:34:00.415Z,55.29
2024-02-04T12:36:32.479Z,55.19
2024-02-04T12:39:22.590Z,54.98
2024-02-04T12:41:52.593Z,54.84
2024-02-04T12:44:20.474Z,54.97
2024-02-04T12:46:54.741Z,54.06
2024-02-04T12:49:25.372Z,54.22
2024-02-04T12:52:18.979Z,54.65
2024-02-04T13:13:29.514Z,54.52
2024-02-04T13:15:59.192Z,54.04
2024-02-04T13:18:56.503Z,54.26
2024-02-04T13:21:44.539Z,54.16
2024-02-04T13:24:11.900Z,54.22
2024-02-04T13:27:16.718Z,54.10
2024-02-04T13:29:47.107Z,53.89
2024-02-04T13:32:17.066Z,53.95
2024-02-04T13:38:25.049Z,54.00
2024-02-04T13:40:54.551Z,54.05
2024-02-04T13:43:26.442Z,54.26
2024-02-04T13:45:54.785Z,54.16
2024-02-04T13:48:23.696Z,54.50
2024-02-04T13:50:54.857Z,52.86
2024-02-04T13:53:22.434Z,48.14
2024-02-04T13:55:57.793Z,47.36
2024-02-04T13:58:27.770Z,48.51
2024-02-04T14:00:55.362Z,48.75
2024-02-04T14:03:23.642Z,49.78
2024-02-04T14:06:03.721Z,50.54
2024-02-04T14:09:07.516Z,50.90
2024-02-04T14:11:38.718Z,51.47
2024-02-04T14:14:15.191Z,51.84
2024-02-04T14:21:23.668Z,51.69
2024-02-04T14:24:03.720Z,51.89
2024-02-04T14:26:43.091Z,52.16
2024-02-04T14:29:14.452Z,52.18
2024-02-04T14:31:52.054Z,52.24
2024-02-04T14:34:37.381Z,52.31
2024-02-04T14:37:24.131Z,52.16
2024-02-04T14:40:18.973Z,52.27
2024-02-04T14:43:07.891Z,52.24
2024-02-04T14:49:11.305Z,52.29
2024-02-04T14:56:16.889Z,52.68
2024-02-04T14:59:58.544Z,52.66
2024-02-04T15:02:25.924Z,52.65
2024-02-04T15:13:49.599Z,52.85
2024-02-04T15:21:03.236Z,52.80
2024-02-04T15:23:30.986Z,53.00
2024-02-04T15:26:01.171Z,52.91
2024-02-04T15:28:34.913Z,53.01
2024-02-04T15:31:02.675Z,52.96
2024-02-04T15:41:15.234Z,52.90
2024-02-04T15:43:42.470Z,53.14
2024-02-04T15:46:11.509Z,52.96
2024-02-04T15:48:42.321Z,52.94
2024-02-04T15:51:12.308Z,52.97
2024-02-04T15:53:43.153Z,52.84
2024-02-04T15:56:17.337Z,52.51
2024-02-04T15:58:48.007Z,52.41
2024-02-04T16:09:49.994Z,52.80
2024-02-04T16:12:28.406Z,52.76
2024-02-04T16:15:14.060Z,53.24
2024-02-04T16:17:42.198Z,53.22
2024-02-04T16:20:14.772Z,52.70
2024-02-04T16:22:43.654Z,52.75
2024-02-04T16:25:11.569Z,52.60
2024-02-04T16:27:39.037Z,52.45
2024-02-04T16:30:07.077Z,52.29
2024-02-04T16:32:34.819Z,52.31
2024-02-04T16:35:04.745Z,52.23
2024-02-04T16:37:32.610Z,52.24
2024-02-04T16:40:03.816Z,52.26
2024-02-04T16:46:50.491Z,52.54
2024-02-04T16:49:20.978Z,52.24
2024-02-04T16:51:53.655Z,52.49
2024-02-04T16:54:30.027Z,52.22
2024-02-04T16:57:10.224Z,52.01
2024-02-04T17:00:06.666Z,51.99
2024-02-04T17:03:49.088Z,52.20
2024-02-04T17:06:16.764Z,52.37
2024-02-04T17:08:44.280Z,52.73
2024-02-04T17:11:12.594Z,52.78
2024-02-04T17:13:40.378Z,52.93
2024-02-04T17:16:37.497Z,52.78
2024-02-04T17:19:39.032Z,52.67
2024-02-04T17:22:16.295Z,52.96
2024-02-04T17:24:51.666Z,52.88
2024-02-04T17:27:21.982Z,53.47
2024-02-04T17:29:59.711Z,53.25
2024-02-04T17:32:27.709Z,52.93
2024-02-04T17:34:59.751Z,53.18
2024-02-04T17:37:31.298Z,52.98
2024-02-04T17:39:58.922Z,53.09
2024-02-04T17:42:28.718Z,53.11
2024-02-04T17:44:59.231Z,53.16
2024-02-04T17:47:47.995Z,53.15
2024-02-04T17:50:26.982Z,52.83
2024-02-04T17:52:57.669Z,52.81
2024-02-04T17:55:25.310Z,53.13
2024-02-04T17:57:59.081Z,53.02
2024-02-04T18:00:26.460Z,53.08
2024-02-04T18:02:55.454Z,52.94
2024-02-04T18:05:31.701Z,53.34
2024-02-04T18:08:06.326Z,53.39
2024-02-04T18:10:48.826Z,53.58
2024-02-04T18:14:12.013Z,53.81
2024-02-04T18:16:41.245Z,53.76
2024-02-04T18:19:13.396Z,53.66
2024-02-04T18:21:41.506Z,53.64
2024-02-04T18:24:09.781Z,53.54
2024-02-04T18:26:43.728Z,53.61
2024-02-04T18:29:11.441Z,53.55
2024-02-04T18:31:38.851Z,53.70
2024-02-04T18:34:06.756Z,53.68
2024-02-04T18:36:36.747Z,53.77
2024-02-04T18:39:04.398Z,53.90
2024-02-04T18:42:01.732Z,53.80
2024-02-04T18:44:31.050Z,53.98
2024-02-04T18:46:58.324Z,53.96
2024-02-04T18:49:26.074Z,53.95
2024-02-04T18:51:53.390Z,53.83
2024-02-04T18:54:24.787Z,53.84
2024-02-04T18:56:52.020Z,54.00
2024-02-04T18:59:19.299Z,54.01
2024-02-04T19:01:47.155Z,53.94
2024-02-04T19:04:14.797Z,54.02
2024-02-04T19:06:42.650Z,54.00
2024-02-04T19:09:17.249Z,53.98
2024-02-04T19:11:49.052Z,54.13
2024-02-04T19:14:21.205Z,53.90
2024-02-04T19:16:48.815Z,54.01
2024-02-04T19:19:16.337Z,54.09
2024-02-04T19:21:47.941Z,54.68
2024-02-04T19:24:19.497Z,53.43
2024-02-04T19:26:48.370Z,53.41
2024-02-04T19:29:21.150Z,53.89
2024-02-04T19:34:42.344Z,54.26
2024-02-04T19:35:04.781Z,53.97
2024-02-04T19:37:12.702Z,54.43
2024-02-04T19:39:42.540Z,54.49
2024-02-04T19:42:24.142Z,54.80
2024-02-04T19:44:51.814Z,54.78
2024-02-04T19:47:31.398Z,54.04
2024-02-04T19:50:04.412Z,54.26
2024-02-04T19:52:47.487Z,54.34
2024-02-04T19:55:17.343Z,54.10
2024-02-04T19:57:49.703Z,54.24
2024-02-04T20:00:50.934Z,54.26
2024-02-04T20:03:08.615Z,53.87
2024-02-04T20:05:46.044Z,54.16
2024-02-04T20:08:31.343Z,54.04
2024-02-04T20:11:10.317Z,53.96
2024-02-04T20:13:48.713Z,53.88
2024-02-04T20:16:22.980Z,53.82
2024-02-04T20:18:57.128Z,53.84
2024-02-04T20:21:51.849Z,53.90
2024-02-04T20:24:23.974Z,53.65
2024-02-04T20:26:59.040Z,53.88
2024-02-04T20:29:49.734Z,53.88
2024-02-04T20:32:45.749Z,53.90
2024-02-04T20:35:56.657Z,53.89
2024-02-04T20:38:15.169Z,54.02
2024-02-04T20:40:48.404Z,53.88
2024-02-04T20:43:24.678Z,54.20
2024-02-04T20:46:06.927Z,54.12
2024-02-04T20:48:37.859Z,54.05
2024-02-04T20:51:26.223Z,54.01
2024-02-04T20:53:58.236Z,54.02
2024-02-04T20:56:36.665Z,54.13
2024-02-04T20:59:34.117Z,54.28
2024-02-04T21:02:34.286Z,54.23
2024-02-04T21:05:08.575Z,54.21
2024-02-04T21:08:14.639Z,54.15
2024-02-04T21:10:54.949Z,54.27
2024-02-04T21:13:25.184Z,54.45
2024-02-04T21:15:55.037Z,54.41
2024-02-04T21:18:28.013Z,54.42
2024-02-04T21:20:55.880Z,56.12
2024-02-04T21:23:28.743Z,56.24
2024-02-04T21:26:18.852Z,56.65
2024-02-04T22:08:44.583Z,57.00
2024-02-04T22:11:11.847Z,57.10
2024-02-04T23:03:48.204Z,57.60
2024-02-04T23:06:16.739Z,57.47
2024-02-04T23:16:32.034Z,57.79
2024-02-04T23:37:09.573Z,57.41
